createdAt,value
2023-01-13T00:04:34.998Z,98.16
2023-01-13T00:09:34.906Z,98.07
2023-01-13T00:14:34.863Z,97.86
2023-01-13T00:19:34.779Z,97.55
2023-01-13T00:24:34.713Z,97.45
2023-01-13T00:29:34.657Z,97.20
2023-01-13T00:34:36.400Z,97.30
2023-01-13T00:39:34.511Z,97.40
2023-01-13T00:44:34.452Z,97.40
2023-01-13T00:49:34.379Z,97.40
2023-01-13T00:54:34.319Z,97.09
2023-01-13T00:59:34.234Z,96.79
2023-01-13T01:04:34.185Z,96.58
2023-01-13T01:09:54.175Z,96.17
2023-01-13T01:14:46.580Z,95.97
2023-01-13T01:19:46.532Z,95.87
2023-01-13T01:24:46.464Z,95.76
2023-01-13T01:29:46.390Z,95.76
2023-01-13T01:34:46.353Z,95.97
2023-01-13T01:39:46.254Z,95.87
2023-01-13T01:44:46.208Z,96.69
2023-01-13T01:49:46.127Z,96.99
2023-01-13T01:54:46.062Z,97.61
2023-01-13T01:59:45.987Z,97.71
2023-01-13T02:04:45.952Z,97.71
2023-01-13T02:09:45.823Z,96.99
2023-01-13T02:14:45.824Z,96.69
2023-01-13T02:19:45.762Z,96.48
2023-01-13T02:24:45.617Z,96.17
2023-01-13T02:29:45.571Z,96.07
2023-01-13T02:34:45.558Z,96.07
2023-01-13T02:39:45.437Z,96.28
2023-01-13T02:44:45.381Z,98.74
2023-01-13T02:49:45.307Z,99.99
2023-01-13T02:54:45.240Z,99.99
2023-01-13T02:59:45.198Z,99.99
2023-01-13T03:04:45.114Z,99.99
2023-01-13T03:09:45.070Z,99.99
2023-01-13T03:14:44.986Z,97.48
2023-01-13T03:19:44.924Z,95.84
2023-01-13T03:24:44.885Z,95.27
2023-01-13T03:29:44.777Z,96.91
2023-01-13T03:34:44.729Z,94.96
2023-01-13T03:39:44.670Z,96.14
2023-01-13T03:44:45.517Z,97.47
2023-01-13T03:49:44.500Z,98.60
2023-01-13T03:54:44.443Z,99.73
2023-01-13T03:59:44.375Z,99.99
2023-01-13T04:04:44.309Z,99.99
2023-01-13T04:09:44.251Z,97.97
2023-01-13T04:14:44.174Z,97.20
2023-01-13T04:19:44.100Z,97.31
2023-01-13T04:24:44.047Z,95.05
2023-01-13T04:29:43.987Z,93.82
2023-01-13T04:34:43.999Z,93.36
2023-01-13T04:39:43.829Z,88.33
2023-01-13T04:44:43.781Z,88.64
2023-01-13T04:49:43.714Z,88.57
2023-01-13T04:54:43.638Z,88.17
2023-01-13T04:59:43.559Z,88.92
2023-01-13T05:04:43.593Z,90.16
2023-01-13T05:09:43.444Z,89.85
2023-01-13T05:14:43.373Z,90.30
2023-01-13T05:19:51.745Z,90.20
2023-01-13T05:24:44.142Z,91.13
2023-01-13T05:29:44.094Z,92.87
2023-01-13T05:34:44.020Z,91.89
2023-01-13T05:39:43.948Z,92.71
2023-01-13T05:44:43.859Z,92.20
2023-01-13T05:49:43.877Z,92.71
2023-01-13T05:54:43.736Z,93.33
2023-01-13T05:59:43.702Z,93.79
2023-01-13T06:04:43.652Z,93.88
2023-01-13T06:09:43.559Z,93.27
2023-01-13T06:14:43.463Z,92.44
2023-01-13T06:19:43.416Z,93.31
2023-01-13T06:24:43.346Z,94.18
2023-01-13T06:29:43.307Z,93.66
2023-01-13T06:34:43.204Z,92.63
2023-01-13T06:39:43.186Z,93.15
2023-01-13T06:44:43.063Z,92.53
2023-01-13T06:49:43.031Z,93.98
2023-01-13T06:54:42.941Z,92.94
2023-01-13T06:59:42.879Z,94.28
2023-01-13T07:04:42.832Z,93.56
2023-01-13T07:09:42.796Z,93.05
2023-01-13T07:14:42.680Z,94.03
2023-01-13T07:19:42.626Z,92.80
2023-01-13T07:24:42.550Z,93.11
2023-01-13T07:29:42.507Z,93.41
2023-01-13T07:34:42.396Z,93.01
2023-01-13T07:39:42.355Z,92.90
2023-01-13T07:44:42.315Z,93.21
2023-01-13T07:49:42.220Z,92.59
2023-01-13T07:54:42.133Z,92.65
2023-01-13T07:59:42.074Z,89.67
2023-01-13T08:04:41.989Z,87.26
2023-01-13T08:09:41.925Z,86.74
2023-01-13T08:14:41.892Z,85.06
2023-01-13T08:19:41.842Z,84.81
2023-01-13T08:24:41.717Z,81.24
2023-01-13T08:29:41.658Z,82.27
2023-01-13T08:34:41.590Z,81.55
2023-01-13T08:39:41.519Z,77.98
2023-01-13T08:44:41.475Z,74.02
2023-01-13T08:49:41.405Z,75.42
2023-01-13T08:54:41.340Z,72.07
2023-01-13T08:59:41.248Z,70.00
2023-01-13T09:04:41.229Z,73.98
2023-01-13T09:09:41.164Z,76.96
2023-01-13T09:14:41.032Z,78.27
2023-01-13T09:19:41.028Z,77.44
2023-01-13T09:24:40.912Z,73.16
2023-01-13T09:29:40.889Z,66.30
2023-01-13T09:34:40.792Z,62.32
2023-01-13T09:39:40.813Z,66.77
2023-01-13T09:44:40.688Z,72.38
2023-01-13T09:49:40.584Z,74.66
2023-01-13T09:54:40.525Z,75.18
2023-01-13T09:59:40.469Z,77.88
2023-01-13T10:04:40.440Z,73.54
2023-01-13T10:09:40.337Z,66.27
2023-01-13T10:14:40.238Z,64.92
2023-01-13T10:19:40.187Z,61.78
2023-01-13T10:24:40.115Z,61.34
2023-01-13T10:29:40.050Z,59.84
2023-01-13T10:34:39.973Z,60.88
2023-01-13T10:39:39.908Z,60.33
2023-01-13T10:44:39.848Z,59.56
2023-01-13T10:49:39.813Z,59.94
2023-01-13T10:54:39.724Z,60.17
2023-01-13T10:59:39.653Z,62.92
2023-01-13T11:04:39.679Z,67.82
2023-01-13T11:09:40.326Z,70.43
2023-01-13T11:14:39.442Z,71.12
2023-01-13T11:19:39.393Z,72.17
2023-01-13T11:24:39.319Z,72.07
2023-01-13T11:29:39.244Z,72.11
2023-01-13T11:34:39.163Z,71.04
2023-01-13T11:39:39.181Z,69.20
2023-01-13T11:44:39.061Z,70.33
2023-01-13T11:49:39.001Z,70.16
2023-01-13T11:54:38.893Z,70.87
2023-01-13T11:59:38.880Z,69.03
2023-01-13T12:04:38.764Z,69.89
2023-01-13T12:09:38.728Z,70.50
2023-01-13T12:14:38.626Z,72.44
2023-01-13T12:19:38.590Z,69.95
2023-01-13T12:24:38.486Z,68.96
2023-01-13T12:29:38.418Z,70.47
2023-01-13T12:34:38.356Z,70.77
2023-01-13T12:39:38.312Z,69.27
2023-01-13T12:44:38.262Z,67.64
2023-01-13T12:49:38.207Z,69.00
2023-01-13T12:54:38.123Z,69.38
2023-01-13T12:59:38.040Z,69.37
2023-01-13T13:04:37.954Z,69.57
2023-01-13T13:09:37.903Z,70.32
2023-01-13T13:14:37.948Z,72.51
2023-01-13T13:19:37.758Z,73.78
2023-01-13T13:24:37.710Z,75.73
2023-01-13T13:29:37.627Z,76.00
2023-01-13T13:34:37.577Z,75.32
2023-01-13T13:39:39.788Z,76.45
2023-01-13T13:44:37.414Z,76.55
2023-01-13T13:49:37.358Z,77.26
2023-01-13T13:54:37.270Z,77.88
2023-01-13T13:59:37.237Z,76.55
2023-01-13T14:04:37.250Z,75.83
2023-01-13T14:09:37.071Z,75.83
2023-01-13T14:14:36.967Z,76.24
2023-01-13T14:19:36.915Z,77.17
2023-01-13T14:24:36.824Z,77.20
2023-01-13T14:29:36.783Z,77.40
2023-01-13T14:34:36.682Z,78.64
2023-01-13T14:39:38.094Z,78.02
2023-01-13T14:44:36.524Z,77.61
2023-01-13T14:49:36.471Z,77.68
2023-01-13T14:54:36.416Z,77.37
2023-01-13T14:59:36.361Z,78.39
2023-01-13T15:04:37.202Z,79.66
2023-01-13T15:09:36.202Z,80.42
2023-01-13T15:14:36.133Z,80.63
2023-01-13T15:19:36.070Z,80.52
2023-01-13T15:24:35.996Z,81.45
2023-01-13T15:29:35.975Z,81.14
2023-01-13T15:34:35.842Z,81.76
2023-01-13T15:39:35.794Z,81.96
2023-01-13T15:44:37.272Z,82.20
2023-01-13T15:49:35.677Z,82.41
2023-01-13T15:54:35.593Z,81.18
2023-01-13T15:59:35.553Z,82.10
2023-01-13T16:04:35.482Z,81.79
2023-01-13T16:09:35.453Z,80.87
2023-01-13T16:14:35.330Z,80.46
2023-01-13T16:19:35.273Z,79.84
2023-01-13T16:24:35.205Z,80.35
2023-01-13T16:29:35.206Z,79.43
2023-01-13T16:34:35.111Z,79.12
2023-01-13T16:39:35.063Z,79.53
2023-01-13T16:44:34.988Z,79.43
2023-01-13T16:49:34.930Z,79.94
2023-01-13T16:54:34.866Z,79.94
2023-01-13T16:59:34.832Z,79.84
2023-01-13T17:04:34.773Z,80.15
2023-01-13T17:09:35.028Z,79.88
2023-01-13T17:14:34.605Z,80.91
2023-01-13T17:19:34.558Z,82.65
2023-01-13T17:24:34.478Z,83.89
2023-01-13T17:29:34.395Z,83.62
2023-01-13T17:34:34.336Z,84.13
2023-01-13T17:39:34.279Z,83.11
2023-01-13T17:44:34.185Z,83.17
2023-01-13T17:49:34.140Z,82.86
2023-01-13T17:54:34.093Z,83.31
2023-01-13T17:59:33.990Z,83.83
2023-01-13T18:04:33.945Z,83.31
2023-01-13T18:09:33.927Z,83.72
2023-01-13T18:14:34.841Z,83.83
2023-01-13T18:19:33.741Z,83.83
2023-01-13T18:24:33.671Z,83.83
2023-01-13T18:29:33.582Z,83.31
2023-01-13T18:34:33.545Z,83.62
2023-01-13T18:39:33.439Z,83.31
2023-01-13T18:44:33.423Z,83.41
2023-01-13T18:49:33.309Z,82.79
2023-01-13T18:54:33.259Z,82.39
2023-01-13T18:59:33.238Z,83.00
2023-01-13T19:04:33.150Z,83.11
2023-01-13T19:09:33.068Z,84.34
2023-01-13T19:14:33.068Z,84.23
2023-01-13T19:19:32.940Z,84.95
2023-01-13T19:24:32.876Z,84.75
2023-01-13T19:29:33.968Z,85.47
2023-01-13T19:34:32.741Z,85.51
2023-01-13T19:39:32.655Z,86.43
2023-01-13T19:44:32.605Z,86.74
2023-01-13T19:49:32.547Z,87.77
2023-01-13T19:54:32.471Z,88.49
2023-01-13T19:59:32.384Z,89.52
2023-01-13T20:04:32.330Z,89.97
2023-01-13T20:09:32.294Z,88.84
2023-01-13T20:14:32.200Z,90.43
2023-01-13T20:19:32.192Z,90.33
2023-01-13T20:24:32.089Z,90.12
2023-01-13T20:29:31.982Z,90.12
2023-01-13T20:34:32.032Z,89.91
2023-01-13T20:39:31.939Z,89.40
2023-01-13T20:44:31.784Z,89.71
2023-01-13T20:49:31.711Z,90.33
2023-01-13T20:54:31.677Z,90.64
2023-01-13T20:59:31.606Z,91.66
2023-01-13T21:04:31.538Z,91.77
2023-01-13T21:09:31.502Z,91.87
2023-01-13T21:14:31.404Z,92.69
2023-01-13T21:19:31.304Z,93.11
2023-01-13T21:24:31.355Z,93.05
2023-01-13T21:29:31.179Z,91.91
2023-01-13T21:34:31.092Z,91.50
2023-01-13T21:39:31.054Z,91.91
2023-01-13T21:44:30.994Z,90.99
2023-01-13T21:49:30.942Z,89.54
2023-01-13T21:54:30.896Z,89.23
2023-01-13T21:59:30.780Z,89.44
2023-01-13T22:04:30.730Z,89.13
2023-01-13T22:09:30.667Z,88.51
2023-01-13T22:14:30.595Z,89.03
2023-01-13T22:19:30.491Z,88.20
2023-01-13T22:24:30.434Z,87.17
2023-01-13T22:29:30.365Z,88.10
2023-01-13T22:34:30.328Z,87.17
2023-01-13T22:39:30.227Z,86.04
2023-01-13T22:44:30.187Z,86.35
2023-01-13T22:49:30.089Z,85.52
2023-01-13T22:54:30.063Z,85.31
2023-01-13T22:59:29.943Z,84.29
2023-01-13T23:04:30.021Z,84.49
2023-01-13T23:09:29.819Z,85.42
2023-01-13T23:14:29.759Z,85.31
2023-01-13T23:19:29.690Z,85.73
2023-01-13T23:24:29.687Z,86.87
2023-01-13T23:29:29.557Z,86.76
2023-01-13T23:34:29.516Z,86.97
2023-01-13T23:39:30.236Z,87.01
2023-01-13T23:44:29.384Z,87.42
2023-01-13T23:49:30.086Z,87.87
2023-01-13T23:54:29.272Z,88.29
2023-01-13T23:59:29.297Z,88.59
